KMLU/MLU METAR and TAF weather

Enter ICAO airport designator
Station Type Date Time Source
KMLU METAR 2022/12/08 11:53 UTC NOAA

KMLU 081153Z AUTO 19004KT 8SM OVC025 20/19 A3021 RMK AO2 SLP229 T02000189 10211 20200 53002


Station Type Date Time Source
KMLU Decoded METAR 2022/12/08 11:53 UTC NOAA

MONROE REGIONAL AIRPORT, LA, United States (KMLU) 32-31N 092-02W 29M
Dec 08, 2022 - 06:53 AM EST / 2022.12.08 1153 UTC
Wind: from the S (190 degrees) at 5 MPH (4 KT):0
Visibility: 8 mile(s):0
Sky conditions: overcast
Temperature: 68.0 F (20.0 C)
Dew Point: 66.0 F (18.9 C)
Relative Humidity: 93%
Pressure (altimeter): 30.21 in. Hg (1023 hPa)
Pressure tendency: 0.01 inches (0.2 hPa) higher than three hours ago
ob: KMLU 081153Z AUTO 19004KT 8SM OVC025 20/19 A3021 RMK AO2 SLP229 T02000189 10211 20200 53002
cycle: 12

Station Type Date Time Source
KMLU TAF 2022/12/08 12:42 UTC NOAA

TAF KMLU 081141Z 0812/0912 20005KT P6SM OVC025
FM081500 21011KT P6SM OVC015
FM081800 22011KT P6SM BKN035
FM090000 20004KT P6SM BKN070

Example: see airport list